sensor_id;sensor_type;location;lat;lon;timestamp;P1;durP1;ratioP1;P2;durP2;ratioP2
78288;SDS011;67539;48.752;12.922;2023-06-10T00:00:03;11.60;;;10.40;;
78288;SDS011;67539;48.752;12.922;2023-06-10T00:02:40;10.87;;;9.77;;
78288;SDS011;67539;48.752;12.922;2023-06-10T00:05:09;10.40;;;9.23;;
78288;SDS011;67539;48.752;12.922;2023-06-10T00:07:37;15.20;;;10.40;;
78288;SDS011;67539;48.752;12.922;2023-06-10T00:10:08;11.43;;;9.80;;
78288;SDS011;67539;48.752;12.922;2023-06-10T00:12:37;10.80;;;9.70;;
78288;SDS011;67539;48.752;12.922;2023-06-10T00:15:07;11.47;;;10.30;;
78288;SDS011;67539;48.752;12.922;2023-06-10T00:17:36;12.40;;;10.37;;
78288;SDS011;67539;48.752;12.922;2023-06-10T00:20:08;12.07;;;10.40;;
78288;SDS011;67539;48.752;12.922;2023-06-10T00:22:39;13.23;;;9.73;;
78288;SDS011;67539;48.752;12.922;2023-06-10T00:25:08;11.33;;;10.23;;
78288;SDS011;67539;48.752;12.922;2023-06-10T00:27:38;11.80;;;10.60;;
78288;SDS011;67539;48.752;12.922;2023-06-10T00:30:06;12.00;;;10.80;;
78288;SDS011;67539;48.752;12.922;2023-06-10T00:32:35;12.93;;;10.50;;
78288;SDS011;67539;48.752;12.922;2023-06-10T00:35:04;11.93;;;10.73;;
78288;SDS011;67539;48.752;12.922;2023-06-10T00:37:35;12.57;;;10.70;;
78288;SDS011;67539;48.752;12.922;2023-06-10T00:40:04;12.60;;;11.20;;
78288;SDS011;67539;48.752;12.922;2023-06-10T00:42:35;11.60;;;10.40;;
78288;SDS011;67539;48.752;12.922;2023-06-10T00:45:03;13.00;;;11.60;;
78288;SDS011;67539;48.752;12.922;2023-06-10T00:47:35;11.30;;;10.10;;
78288;SDS011;67539;48.752;12.922;2023-06-10T00:50:03;12.23;;;10.90;;
78288;SDS011;67539;48.752;12.922;2023-06-10T00:52:33;11.57;;;10.47;;
78288;SDS011;67539;48.752;12.922;2023-06-10T00:55:05;11.03;;;9.93;;
78288;SDS011;67539;48.752;12.922;2023-06-10T00:57:34;10.50;;;9.50;;
78288;SDS011;67539;48.752;12.922;2023-06-10T01:00:04;10.40;;;9.50;;
78288;SDS011;67539;48.752;12.922;2023-06-10T01:02:34;11.13;;;9.60;;
78288;SDS011;67539;48.752;12.922;2023-06-10T01:05:03;10.63;;;9.53;;
78288;SDS011;67539;48.752;12.922;2023-06-10T01:07:34;11.20;;;10.10;;
78288;SDS011;67539;48.752;12.922;2023-06-10T01:10:12;13.50;;;10.47;;
78288;SDS011;67539;48.752;12.922;2023-06-10T01:12:49;11.50;;;10.30;;
78288;SDS011;67539;48.752;12.922;2023-06-10T01:15:25;11.60;;;10.40;;
78288;SDS011;67539;48.752;12.922;2023-06-10T01:17:55;11.30;;;10.20;;
78288;SDS011;67539;48.752;12.922;2023-06-10T01:20:25;11.73;;;10.40;;
78288;SDS011;67539;48.752;12.922;2023-06-10T01:22:57;11.30;;;9.77;;
78288;SDS011;67539;48.752;12.922;2023-06-10T01:25:26;11.50;;;10.33;;
78288;SDS011;67539;48.752;12.922;2023-06-10T01:27:59;11.27;;;10.17;;
78288;SDS011;67539;48.752;12.922;2023-06-10T01:30:32;12.87;;;11.53;;
78288;SDS011;67539;48.752;12.922;2023-06-10T01:33:07;13.53;;;12.00;;
78288;SDS011;67539;48.752;12.922;2023-06-10T01:35:39;13.20;;;11.90;;
78288;SDS011;67539;48.752;12.922;2023-06-10T01:38:12;14.53;;;13.13;;
78288;SDS011;67539;48.752;12.922;2023-06-10T01:40:41;12.87;;;11.57;;
78288;SDS011;67539;48.752;12.922;2023-06-10T01:43:10;12.87;;;11.57;;
78288;SDS011;67539;48.752;12.922;2023-06-10T01:45:38;13.03;;;11.73;;
78288;SDS011;67539;48.752;12.922;2023-06-10T01:48:07;11.63;;;10.43;;
78288;SDS011;67539;48.752;12.922;2023-06-10T01:50:36;12.47;;;11.27;;
78288;SDS011;67539;48.752;12.922;2023-06-10T01:53:04;11.20;;;10.20;;
78288;SDS011;67539;48.752;12.922;2023-06-10T01:55:34;12.07;;;10.87;;
78288;SDS011;67539;48.752;12.922;2023-06-10T01:58:02;12.83;;;11.57;;
78288;SDS011;67539;48.752;12.922;2023-06-10T02:00:30;12.27;;;11.07;;
78288;SDS011;67539;48.752;12.922;2023-06-10T02:03:00;11.77;;;10.40;;
78288;SDS011;67539;48.752;12.922;2023-06-10T02:05:28;11.73;;;10.60;;
78288;SDS011;67539;48.752;12.922;2023-06-10T02:07:56;11.43;;;10.33;;
78288;SDS011;67539;48.752;12.922;2023-06-10T02:10:24;11.30;;;10.30;;
78288;SDS011;67539;48.752;12.922;2023-06-10T02:12:54;11.53;;;10.40;;
78288;SDS011;67539;48.752;12.922;2023-06-10T02:15:22;12.03;;;10.77;;
78288;SDS011;67539;48.752;12.922;2023-06-10T02:17:51;12.77;;;11.47;;
78288;SDS011;67539;48.752;12.922;2023-06-10T02:20:19;11.97;;;10.67;;
78288;SDS011;67539;48.752;12.922;2023-06-10T02:22:48;11.87;;;10.50;;
78288;SDS011;67539;48.752;12.922;2023-06-10T02:25:16;11.90;;;10.80;;
78288;SDS011;67539;48.752;12.922;2023-06-10T02:27:44;11.87;;;10.67;;
78288;SDS011;67539;48.752;12.922;2023-06-10T02:30:14;12.30;;;11.10;;
78288;SDS011;67539;48.752;12.922;2023-06-10T02:32:42;13.33;;;11.93;;
78288;SDS011;67539;48.752;12.922;2023-06-10T02:35:16;11.97;;;10.77;;
78288;SDS011;67539;48.752;12.922;2023-06-10T02:37:45;11.47;;;10.33;;
78288;SDS011;67539;48.752;12.922;2023-06-10T02:40:13;12.93;;;10.80;;
78288;SDS011;67539;48.752;12.922;2023-06-10T02:42:42;12.47;;;11.17;;
78288;SDS011;67539;48.752;12.922;2023-06-10T02:45:10;11.77;;;10.67;;
78288;SDS011;67539;48.752;12.922;2023-06-10T02:47:42;15.33;;;11.53;;
78288;SDS011;67539;48.752;12.922;2023-06-10T02:50:11;13.40;;;11.17;;
78288;SDS011;67539;48.752;12.922;2023-06-10T02:52:49;13.80;;;12.37;;
78288;SDS011;67539;48.752;12.922;2023-06-10T02:55:18;13.00;;;11.57;;
78288;SDS011;67539;48.752;12.922;2023-06-10T02:57:52;13.30;;;11.97;;
78288;SDS011;67539;48.752;12.922;2023-06-10T03:00:21;12.23;;;11.10;;
78288;SDS011;67539;48.752;12.922;2023-06-10T03:02:51;13.10;;;11.50;;
78288;SDS011;67539;48.752;12.922;2023-06-10T03:05:28;12.07;;;10.90;;
78288;SDS011;67539;48.752;12.922;2023-06-10T03:08:00;13.40;;;11.67;;
78288;SDS011;67539;48.752;12.922;2023-06-10T03:10:30;13.20;;;11.90;;
78288;SDS011;67539;48.752;12.922;2023-06-10T03:13:00;15.20;;;12.90;;
78288;SDS011;67539;48.752;12.922;2023-06-10T03:15:28;13.17;;;11.80;;
78288;SDS011;67539;48.752;12.922;2023-06-10T03:18:02;13.57;;;12.13;;
78288;SDS011;67539;48.752;12.922;2023-06-10T03:20:30;14.97;;;11.13;;
78288;SDS011;67539;48.752;12.922;2023-06-10T03:23:04;13.83;;;12.43;;
78288;SDS011;67539;48.752;12.922;2023-06-10T03:25:34;13.20;;;11.87;;
78288;SDS011;67539;48.752;12.922;2023-06-10T03:28:02;17.27;;;11.57;;
78288;SDS011;67539;48.752;12.922;2023-06-10T03:30:31;13.83;;;12.00;;
78288;SDS011;67539;48.752;12.922;2023-06-10T03:32:59;12.87;;;11.50;;
78288;SDS011;67539;48.752;12.922;2023-06-10T03:35:30;12.87;;;11.53;;
78288;SDS011;67539;48.752;12.922;2023-06-10T03:37:59;12.30;;;11.00;;
78288;SDS011;67539;48.752;12.922;2023-06-10T03:40:28;17.53;;;12.90;;
78288;SDS011;67539;48.752;12.922;2023-06-10T03:42:58;12.57;;;11.27;;
78288;SDS011;67539;48.752;12.922;2023-06-10T03:45:27;12.63;;;11.37;;
78288;SDS011;67539;48.752;12.922;2023-06-10T03:47:56;12.97;;;11.67;;
78288;SDS011;67539;48.752;12.922;2023-06-10T03:50:33;12.97;;;11.57;;
78288;SDS011;67539;48.752;12.922;2023-06-10T03:53:03;11.60;;;10.30;;
78288;SDS011;67539;48.752;12.922;2023-06-10T03:55:31;12.50;;;11.03;;
78288;SDS011;67539;48.752;12.922;2023-06-10T03:58:00;12.60;;;11.00;;
78288;SDS011;67539;48.752;12.922;2023-06-10T04:00:29;14.20;;;11.40;;
78288;SDS011;67539;48.752;12.922;2023-06-10T04:02:57;12.40;;;11.17;;
78288;SDS011;67539;48.752;12.922;2023-06-10T04:05:30;14.67;;;11.10;;
78288;SDS011;67539;48.752;12.922;2023-06-10T04:08:00;12.40;;;11.10;;
78288;SDS011;67539;48.752;12.922;2023-06-10T04:10:28;14.07;;;11.40;;
78288;SDS011;67539;48.752;12.922;2023-06-10T04:12:57;14.23;;;12.10;;
78288;SDS011;67539;48.752;12.922;2023-06-10T04:15:29;12.33;;;10.77;;
78288;SDS011;67539;48.752;12.922;2023-06-10T04:18:03;15.77;;;13.07;;
78288;SDS011;67539;48.752;12.922;2023-06-10T04:20:32;12.93;;;11.63;;
78288;SDS011;67539;48.752;12.922;2023-06-10T04:23:01;14.10;;;12.60;;
78288;SDS011;67539;48.752;12.922;2023-06-10T04:25:30;12.73;;;11.30;;
78288;SDS011;67539;48.752;12.922;2023-06-10T04:27:58;14.87;;;12.63;;
78288;SDS011;67539;48.752;12.922;2023-06-10T04:30:27;14.40;;;12.90;;
78288;SDS011;67539;48.752;12.922;2023-06-10T04:32:55;14.20;;;12.03;;
78288;SDS011;67539;48.752;12.922;2023-06-10T04:35:23;12.77;;;11.43;;
78288;SDS011;67539;48.752;12.922;2023-06-10T04:37:54;17.43;;;14.63;;
78288;SDS011;67539;48.752;12.922;2023-06-10T04:40:24;17.30;;;14.27;;
78288;SDS011;67539;48.752;12.922;2023-06-10T04:42:53;14.40;;;12.93;;
78288;SDS011;67539;48.752;12.922;2023-06-10T04:45:21;13.53;;;12.13;;
78288;SDS011;67539;48.752;12.922;2023-06-10T04:47:49;16.30;;;14.00;;
78288;SDS011;67539;48.752;12.922;2023-06-10T04:50:18;14.97;;;13.43;;
78288;SDS011;67539;48.752;12.922;2023-06-10T04:52:47;16.37;;;14.20;;
78288;SDS011;67539;48.752;12.922;2023-06-10T04:55:15;15.67;;;14.07;;
78288;SDS011;67539;48.752;12.922;2023-06-10T04:57:45;16.20;;;13.93;;
78288;SDS011;67539;48.752;12.922;2023-06-10T05:00:17;14.60;;;13.10;;
78288;SDS011;67539;48.752;12.922;2023-06-10T05:02:45;17.13;;;14.67;;
78288;SDS011;67539;48.752;12.922;2023-06-10T05:05:16;17.70;;;15.03;;
78288;SDS011;67539;48.752;12.922;2023-06-10T05:07:44;17.03;;;15.30;;
78288;SDS011;67539;48.752;12.922;2023-06-10T05:10:12;17.47;;;15.37;;
78288;SDS011;67539;48.752;12.922;2023-06-10T05:12:40;15.80;;;14.03;;
78288;SDS011;67539;48.752;12.922;2023-06-10T05:15:10;16.20;;;14.50;;
78288;SDS011;67539;48.752;12.922;2023-06-10T05:17:39;16.70;;;14.90;;
78288;SDS011;67539;48.752;12.922;2023-06-10T05:20:07;16.27;;;14.47;;
78288;SDS011;67539;48.752;12.922;2023-06-10T05:22:36;16.13;;;14.13;;
78288;SDS011;67539;48.752;12.922;2023-06-10T05:25:04;17.33;;;15.03;;
78288;SDS011;67539;48.752;12.922;2023-06-10T05:27:33;15.57;;;13.90;;
78288;SDS011;67539;48.752;12.922;2023-06-10T05:30:02;17.50;;;15.60;;
78288;SDS011;67539;48.752;12.922;2023-06-10T05:32:32;15.37;;;13.77;;
78288;SDS011;67539;48.752;12.922;2023-06-10T05:35:00;14.43;;;12.93;;
78288;SDS011;67539;48.752;12.922;2023-06-10T05:37:30;15.27;;;13.73;;
78288;SDS011;67539;48.752;12.922;2023-06-10T05:39:58;15.47;;;13.97;;
78288;SDS011;67539;48.752;12.922;2023-06-10T05:42:26;14.73;;;13.23;;
78288;SDS011;67539;48.752;12.922;2023-06-10T05:44:54;15.73;;;14.03;;
78288;SDS011;67539;48.752;12.922;2023-06-10T05:47:22;16.57;;;14.10;;
78288;SDS011;67539;48.752;12.922;2023-06-10T05:49:52;13.83;;;12.47;;
78288;SDS011;67539;48.752;12.922;2023-06-10T05:52:20;13.67;;;12.23;;
78288;SDS011;67539;48.752;12.922;2023-06-10T05:54:48;16.30;;;13.10;;
78288;SDS011;67539;48.752;12.922;2023-06-10T05:57:17;12.13;;;10.93;;
78288;SDS011;67539;48.752;12.922;2023-06-10T05:59:45;14.13;;;12.83;;
78288;SDS011;67539;48.752;12.922;2023-06-10T06:02:13;12.73;;;11.53;;
78288;SDS011;67539;48.752;12.922;2023-06-10T06:04:41;12.80;;;11.50;;
78288;SDS011;67539;48.752;12.922;2023-06-10T06:07:11;11.97;;;10.77;;
78288;SDS011;67539;48.752;12.922;2023-06-10T06:09:39;11.90;;;10.77;;
78288;SDS011;67539;48.752;12.922;2023-06-10T06:12:08;11.90;;;10.23;;
78288;SDS011;67539;48.752;12.922;2023-06-10T06:14:38;11.33;;;10.23;;
78288;SDS011;67539;48.752;12.922;2023-06-10T06:17:06;11.63;;;10.63;;
78288;SDS011;67539;48.752;12.922;2023-06-10T06:19:35;11.50;;;10.30;;
78288;SDS011;67539;48.752;12.922;2023-06-10T06:22:03;22.70;;;12.63;;
78288;SDS011;67539;48.752;12.922;2023-06-10T06:24:33;12.87;;;11.77;;
78288;SDS011;67539;48.752;12.922;2023-06-10T06:27:01;12.17;;;11.07;;
78288;SDS011;67539;48.752;12.922;2023-06-10T06:29:30;13.90;;;12.50;;
78288;SDS011;67539;48.752;12.922;2023-06-10T06:31:58;11.80;;;10.70;;
78288;SDS011;67539;48.752;12.922;2023-06-10T06:34:27;11.67;;;10.60;;
78288;SDS011;67539;48.752;12.922;2023-06-10T06:36:55;11.23;;;10.23;;
78288;SDS011;67539;48.752;12.922;2023-06-10T06:39:23;10.80;;;9.90;;
78288;SDS011;67539;48.752;12.922;2023-06-10T06:41:54;10.90;;;9.80;;
78288;SDS011;67539;48.752;12.922;2023-06-10T06:44:39;11.83;;;10.83;;
78288;SDS011;67539;48.752;12.922;2023-06-10T06:47:07;11.00;;;10.00;;
78288;SDS011;67539;48.752;12.922;2023-06-10T06:49:37;10.33;;;9.47;;
78288;SDS011;67539;48.752;12.922;2023-06-10T06:52:05;11.43;;;10.40;;
78288;SDS011;67539;48.752;12.922;2023-06-10T06:54:34;10.60;;;9.70;;
78288;SDS011;67539;48.752;12.922;2023-06-10T06:57:05;11.37;;;10.33;;
78288;SDS011;67539;48.752;12.922;2023-06-10T06:59:34;11.87;;;10.77;;
78288;SDS011;67539;48.752;12.922;2023-06-10T07:02:03;10.53;;;9.63;;
78288;SDS011;67539;48.752;12.922;2023-06-10T07:04:31;11.73;;;10.63;;
78288;SDS011;67539;48.752;12.922;2023-06-10T07:06:59;10.73;;;9.83;;
78288;SDS011;67539;48.752;12.922;2023-06-10T07:09:27;10.17;;;9.37;;
78288;SDS011;67539;48.752;12.922;2023-06-10T07:11:56;9.90;;;9.10;;
78288;SDS011;67539;48.752;12.922;2023-06-10T07:14:26;10.23;;;9.43;;
78288;SDS011;67539;48.752;12.922;2023-06-10T07:16:54;10.70;;;9.80;;
78288;SDS011;67539;48.752;12.922;2023-06-10T07:19:23;9.33;;;8.53;;
78288;SDS011;67539;48.752;12.922;2023-06-10T07:21:51;10.47;;;9.57;;
78288;SDS011;67539;48.752;12.922;2023-06-10T07:24:19;9.83;;;9.13;;
78288;SDS011;67539;48.752;12.922;2023-06-10T07:26:47;10.57;;;9.77;;
78288;SDS011;67539;48.752;12.922;2023-06-10T07:29:15;9.80;;;9.00;;
78288;SDS011;67539;48.752;12.922;2023-06-10T07:31:45;9.70;;;8.93;;
78288;SDS011;67539;48.752;12.922;2023-06-10T07:34:13;8.63;;;7.80;;
78288;SDS011;67539;48.752;12.922;2023-06-10T07:36:41;9.83;;;9.03;;
78288;SDS011;67539;48.752;12.922;2023-06-10T07:39:09;8.47;;;7.87;;
78288;SDS011;67539;48.752;12.922;2023-06-10T07:41:38;9.70;;;8.90;;
78288;SDS011;67539;48.752;12.922;2023-06-10T07:44:06;9.90;;;9.10;;
78288;SDS011;67539;48.752;12.922;2023-06-10T07:46:34;9.33;;;8.63;;
78288;SDS011;67539;48.752;12.922;2023-06-10T07:49:05;9.17;;;8.50;;
78288;SDS011;67539;48.752;12.922;2023-06-10T07:51:33;9.07;;;8.40;;
78288;SDS011;67539;48.752;12.922;2023-06-10T07:54:01;8.30;;;7.60;;
78288;SDS011;67539;48.752;12.922;2023-06-10T07:56:29;7.77;;;7.17;;
78288;SDS011;67539;48.752;12.922;2023-06-10T07:58:58;8.70;;;8.10;;
78288;SDS011;67539;48.752;12.922;2023-06-10T08:01:27;8.10;;;7.50;;
78288;SDS011;67539;48.752;12.922;2023-06-10T08:03:56;8.70;;;8.00;;
78288;SDS011;67539;48.752;12.922;2023-06-10T08:06:26;8.83;;;8.13;;
78288;SDS011;67539;48.752;12.922;2023-06-10T08:08:54;8.80;;;8.10;;
78288;SDS011;67539;48.752;12.922;2023-06-10T08:11:22;8.70;;;8.10;;
78288;SDS011;67539;48.752;12.922;2023-06-10T08:13:52;8.30;;;7.70;;
78288;SDS011;67539;48.752;12.922;2023-06-10T08:16:20;8.27;;;7.47;;
78288;SDS011;67539;48.752;12.922;2023-06-10T08:18:49;8.43;;;7.83;;
78288;SDS011;67539;48.752;12.922;2023-06-10T08:21:21;7.37;;;6.87;;
78288;SDS011;67539;48.752;12.922;2023-06-10T08:23:53;6.90;;;6.30;;
78288;SDS011;67539;48.752;12.922;2023-06-10T08:26:21;8.47;;;7.80;;
78288;SDS011;67539;48.752;12.922;2023-06-10T08:28:50;8.03;;;7.43;;
78288;SDS011;67539;48.752;12.922;2023-06-10T08:31:18;8.43;;;7.73;;
78288;SDS011;67539;48.752;12.922;2023-06-10T08:33:46;10.03;;;7.67;;
78288;SDS011;67539;48.752;12.922;2023-06-10T08:36:14;9.37;;;8.67;;
78288;SDS011;67539;48.752;12.922;2023-06-10T08:38:42;8.70;;;8.07;;
78288;SDS011;67539;48.752;12.922;2023-06-10T08:41:12;9.00;;;8.20;;
78288;SDS011;67539;48.752;12.922;2023-06-10T08:43:45;8.60;;;8.00;;
78288;SDS011;67539;48.752;12.922;2023-06-10T08:46:17;8.70;;;8.00;;
78288;SDS011;67539;48.752;12.922;2023-06-10T08:48:46;9.10;;;8.30;;
78288;SDS011;67539;48.752;12.922;2023-06-10T08:51:18;8.23;;;7.63;;
78288;SDS011;67539;48.752;12.922;2023-06-10T08:53:48;9.23;;;8.50;;
78288;SDS011;67539;48.752;12.922;2023-06-10T08:56:24;8.13;;;7.43;;
78288;SDS011;67539;48.752;12.922;2023-06-10T08:58:54;7.60;;;6.90;;
78288;SDS011;67539;48.752;12.922;2023-06-10T09:01:23;8.07;;;7.53;;
78288;SDS011;67539;48.752;12.922;2023-06-10T09:03:53;9.13;;;8.43;;
78288;SDS011;67539;48.752;12.922;2023-06-10T09:06:22;8.43;;;7.83;;
78288;SDS011;67539;48.752;12.922;2023-06-10T09:08:50;9.00;;;7.70;;
78288;SDS011;67539;48.752;12.922;2023-06-10T09:11:19;9.47;;;8.67;;
78288;SDS011;67539;48.752;12.922;2023-06-10T09:13:48;8.83;;;8.23;;
78288;SDS011;67539;48.752;12.922;2023-06-10T09:16:17;9.10;;;8.40;;
78288;SDS011;67539;48.752;12.922;2023-06-10T09:18:45;8.80;;;8.07;;
78288;SDS011;67539;48.752;12.922;2023-06-10T09:21:13;7.60;;;6.90;;
78288;SDS011;67539;48.752;12.922;2023-06-10T09:23:41;7.97;;;7.37;;
78288;SDS011;67539;48.752;12.922;2023-06-10T09:26:11;8.40;;;7.80;;
78288;SDS011;67539;48.752;12.922;2023-06-10T09:28:41;8.80;;;8.10;;
78288;SDS011;67539;48.752;12.922;2023-06-10T09:31:12;7.80;;;7.20;;
78288;SDS011;67539;48.752;12.922;2023-06-10T09:33:44;8.37;;;7.67;;
78288;SDS011;67539;48.752;12.922;2023-06-10T09:36:20;8.90;;;8.20;;
78288;SDS011;67539;48.752;12.922;2023-06-10T09:38:50;9.00;;;8.30;;
78288;SDS011;67539;48.752;12.922;2023-06-10T09:41:18;9.10;;;8.40;;
78288;SDS011;67539;48.752;12.922;2023-06-10T09:43:48;9.50;;;8.70;;
78288;SDS011;67539;48.752;12.922;2023-06-10T09:46:17;9.07;;;8.47;;
78288;SDS011;67539;48.752;12.922;2023-06-10T09:48:47;8.60;;;7.90;;
78288;SDS011;67539;48.752;12.922;2023-06-10T09:51:15;8.23;;;7.63;;
78288;SDS011;67539;48.752;12.922;2023-06-10T09:53:47;8.83;;;8.17;;
78288;SDS011;67539;48.752;12.922;2023-06-10T09:56:16;8.30;;;7.70;;
78288;SDS011;67539;48.752;12.922;2023-06-10T09:58:45;8.90;;;8.20;;
78288;SDS011;67539;48.752;12.922;2023-06-10T10:01:13;8.40;;;7.80;;
78288;SDS011;67539;48.752;12.922;2023-06-10T10:03:44;8.37;;;7.77;;
78288;SDS011;67539;48.752;12.922;2023-06-10T10:06:14;9.00;;;8.40;;
78288;SDS011;67539;48.752;12.922;2023-06-10T10:08:43;9.07;;;8.37;;
78288;SDS011;67539;48.752;12.922;2023-06-10T10:11:12;7.93;;;7.43;;
78288;SDS011;67539;48.752;12.922;2023-06-10T10:13:42;8.23;;;7.63;;
78288;SDS011;67539;48.752;12.922;2023-06-10T10:16:14;8.87;;;8.17;;
78288;SDS011;67539;48.752;12.922;2023-06-10T10:18:46;9.03;;;8.33;;
78288;SDS011;67539;48.752;12.922;2023-06-10T10:21:21;8.50;;;7.90;;
78288;SDS011;67539;48.752;12.922;2023-06-10T10:23:53;8.63;;;8.03;;
78288;SDS011;67539;48.752;12.922;2023-06-10T10:26:27;8.60;;;8.00;;
78288;SDS011;67539;48.752;12.922;2023-06-10T10:28:58;9.17;;;8.37;;
78288;SDS011;67539;48.752;12.922;2023-06-10T10:31:34;8.47;;;7.77;;
78288;SDS011;67539;48.752;12.922;2023-06-10T10:34:08;8.30;;;7.70;;
78288;SDS011;67539;48.752;12.922;2023-06-10T10:36:40;8.40;;;7.70;;
78288;SDS011;67539;48.752;12.922;2023-06-10T10:39:10;8.60;;;8.00;;
78288;SDS011;67539;48.752;12.922;2023-06-10T10:41:38;8.93;;;8.30;;
78288;SDS011;67539;48.752;12.922;2023-06-10T10:44:08;10.17;;;9.37;;
78288;SDS011;67539;48.752;12.922;2023-06-10T10:46:44;8.70;;;8.00;;
78288;SDS011;67539;48.752;12.922;2023-06-10T10:49:17;10.23;;;9.47;;
78288;SDS011;67539;48.752;12.922;2023-06-10T10:51:56;10.13;;;9.20;;
78288;SDS011;67539;48.752;12.922;2023-06-10T10:54:28;8.70;;;8.00;;
78288;SDS011;67539;48.752;12.922;2023-06-10T10:57:10;9.67;;;8.87;;
78288;SDS011;67539;48.752;12.922;2023-06-10T10:59:43;8.87;;;8.20;;
78288;SDS011;67539;48.752;12.922;2023-06-10T11:02:19;9.17;;;8.47;;
78288;SDS011;67539;48.752;12.922;2023-06-10T11:05:07;9.43;;;8.73;;
78288;SDS011;67539;48.752;12.922;2023-06-10T11:07:37;8.77;;;8.07;;
78288;SDS011;67539;48.752;12.922;2023-06-10T11:10:06;9.30;;;8.60;;
78288;SDS011;67539;48.752;12.922;2023-06-10T11:12:52;8.30;;;7.70;;
78288;SDS011;67539;48.752;12.922;2023-06-10T11:15:22;8.80;;;8.13;;
78288;SDS011;67539;48.752;12.922;2023-06-10T11:18:07;9.10;;;8.50;;
78288;SDS011;67539;48.752;12.922;2023-06-10T11:20:54;9.27;;;8.67;;
78288;SDS011;67539;48.752;12.922;2023-06-10T11:23:32;8.43;;;7.83;;
78288;SDS011;67539;48.752;12.922;2023-06-10T11:26:15;8.63;;;8.03;;
78288;SDS011;67539;48.752;12.922;2023-06-10T11:31:45;7.97;;;7.43;;
78288;SDS011;67539;48.752;12.922;2023-06-10T11:34:23;7.43;;;6.93;;
78288;SDS011;67539;48.752;12.922;2023-06-10T11:36:54;6.70;;;6.30;;
78288;SDS011;67539;48.752;12.922;2023-06-10T11:39:23;7.60;;;7.17;;
78288;SDS011;67539;48.752;12.922;2023-06-10T11:41:53;7.00;;;6.60;;
78288;SDS011;67539;48.752;12.922;2023-06-10T11:44:22;7.37;;;6.87;;
78288;SDS011;67539;48.752;12.922;2023-06-10T11:46:56;7.50;;;7.00;;
78288;SDS011;67539;48.752;12.922;2023-06-10T11:49:24;7.13;;;6.70;;
78288;SDS011;67539;48.752;12.922;2023-06-10T11:51:52;7.20;;;6.70;;
78288;SDS011;67539;48.752;12.922;2023-06-10T11:54:22;6.50;;;6.00;;
78288;SDS011;67539;48.752;12.922;2023-06-10T11:56:56;6.60;;;6.10;;
78288;SDS011;67539;48.752;12.922;2023-06-10T11:59:27;6.63;;;6.23;;
78288;SDS011;67539;48.752;12.922;2023-06-10T12:01:55;5.80;;;5.50;;
78288;SDS011;67539;48.752;12.922;2023-06-10T12:04:23;6.50;;;6.10;;
78288;SDS011;67539;48.752;12.922;2023-06-10T12:06:53;6.13;;;5.83;;
78288;SDS011;67539;48.752;12.922;2023-06-10T12:09:23;6.20;;;5.80;;
78288;SDS011;67539;48.752;12.922;2023-06-10T12:11:54;4.90;;;4.60;;
78288;SDS011;67539;48.752;12.922;2023-06-10T12:17:20;5.73;;;5.40;;
78288;SDS011;67539;48.752;12.922;2023-06-10T12:19:50;6.13;;;5.73;;
78288;SDS011;67539;48.752;12.922;2023-06-10T12:22:20;5.27;;;5.00;;
78288;SDS011;67539;48.752;12.922;2023-06-10T12:24:59;5.63;;;5.33;;
78288;SDS011;67539;48.752;12.922;2023-06-10T12:27:30;5.83;;;5.53;;
78288;SDS011;67539;48.752;12.922;2023-06-10T12:29:58;5.77;;;5.47;;
78288;SDS011;67539;48.752;12.922;2023-06-10T12:32:39;5.30;;;4.90;;
78288;SDS011;67539;48.752;12.922;2023-06-10T12:35:09;5.70;;;5.40;;
78288;SDS011;67539;48.752;12.922;2023-06-10T12:37:41;6.03;;;5.63;;
78288;SDS011;67539;48.752;12.922;2023-06-10T12:40:10;5.40;;;5.10;;
78288;SDS011;67539;48.752;12.922;2023-06-10T12:42:39;5.40;;;5.10;;
78288;SDS011;67539;48.752;12.922;2023-06-10T12:45:08;5.30;;;5.00;;
78288;SDS011;67539;48.752;12.922;2023-06-10T12:47:38;5.43;;;5.03;;
78288;SDS011;67539;48.752;12.922;2023-06-10T12:50:08;5.13;;;4.73;;
78288;SDS011;67539;48.752;12.922;2023-06-10T12:52:39;6.33;;;5.83;;
78288;SDS011;67539;48.752;12.922;2023-06-10T12:55:09;6.10;;;5.70;;
78288;SDS011;67539;48.752;12.922;2023-06-10T12:57:47;6.80;;;6.30;;
78288;SDS011;67539;48.752;12.922;2023-06-10T13:00:16;7.00;;;6.60;;
78288;SDS011;67539;48.752;12.922;2023-06-10T13:02:45;6.80;;;6.40;;
78288;SDS011;67539;48.752;12.922;2023-06-10T13:05:14;6.43;;;6.00;;
78288;SDS011;67539;48.752;12.922;2023-06-10T13:07:43;8.23;;;7.63;;
78288;SDS011;67539;48.752;12.922;2023-06-10T13:10:12;8.90;;;8.20;;
78288;SDS011;67539;48.752;12.922;2023-06-10T13:12:41;7.87;;;7.37;;
78288;SDS011;67539;48.752;12.922;2023-06-10T13:15:14;7.90;;;7.23;;
78288;SDS011;67539;48.752;12.922;2023-06-10T13:17:42;8.33;;;7.63;;
78288;SDS011;67539;48.752;12.922;2023-06-10T13:20:12;8.30;;;7.60;;
78288;SDS011;67539;48.752;12.922;2023-06-10T13:22:40;7.53;;;6.93;;
78288;SDS011;67539;48.752;12.922;2023-06-10T13:25:08;8.60;;;7.80;;
78288;SDS011;67539;48.752;12.922;2023-06-10T13:27:40;9.17;;;8.40;;
78288;SDS011;67539;48.752;12.922;2023-06-10T13:30:09;8.03;;;7.43;;
78288;SDS011;67539;48.752;12.922;2023-06-10T13:32:38;7.20;;;6.70;;
78288;SDS011;67539;48.752;12.922;2023-06-10T13:35:07;10.87;;;8.47;;
78288;SDS011;67539;48.752;12.922;2023-06-10T13:37:36;8.57;;;7.77;;
78288;SDS011;67539;48.752;12.922;2023-06-10T13:40:05;11.90;;;7.70;;
78288;SDS011;67539;48.752;12.922;2023-06-10T13:42:34;6.77;;;5.77;;
78288;SDS011;67539;48.752;12.922;2023-06-10T13:45:05;6.33;;;5.93;;
78288;SDS011;67539;48.752;12.922;2023-06-10T13:47:36;5.20;;;4.80;;
78288;SDS011;67539;48.752;12.922;2023-06-10T13:50:05;4.57;;;4.10;;
78288;SDS011;67539;48.752;12.922;2023-06-10T13:52:34;5.13;;;4.70;;
78288;SDS011;67539;48.752;12.922;2023-06-10T13:55:03;4.23;;;4.03;;
78288;SDS011;67539;48.752;12.922;2023-06-10T13:57:32;4.67;;;4.00;;
78288;SDS011;67539;48.752;12.922;2023-06-10T14:00:02;4.43;;;4.13;;
78288;SDS011;67539;48.752;12.922;2023-06-10T14:02:32;5.90;;;5.03;;
78288;SDS011;67539;48.752;12.922;2023-06-10T14:05:00;6.77;;;6.10;;
78288;SDS011;67539;48.752;12.922;2023-06-10T14:07:28;4.70;;;4.23;;
78288;SDS011;67539;48.752;12.922;2023-06-10T14:09:56;5.73;;;5.33;;
78288;SDS011;67539;48.752;12.922;2023-06-10T14:12:25;5.57;;;5.03;;
78288;SDS011;67539;48.752;12.922;2023-06-10T14:14:53;5.97;;;5.47;;
78288;SDS011;67539;48.752;12.922;2023-06-10T14:17:21;5.80;;;5.30;;
78288;SDS011;67539;48.752;12.922;2023-06-10T14:19:51;6.73;;;5.67;;
78288;SDS011;67539;48.752;12.922;2023-06-10T14:22:19;5.40;;;4.97;;
78288;SDS011;67539;48.752;12.922;2023-06-10T14:24:47;6.80;;;6.20;;
78288;SDS011;67539;48.752;12.922;2023-06-10T14:27:15;7.10;;;6.20;;
78288;SDS011;67539;48.752;12.922;2023-06-10T14:29:43;6.70;;;6.07;;
78288;SDS011;67539;48.752;12.922;2023-06-10T14:32:11;6.50;;;5.67;;
78288;SDS011;67539;48.752;12.922;2023-06-10T14:34:40;7.20;;;6.60;;
78288;SDS011;67539;48.752;12.922;2023-06-10T14:37:10;6.00;;;5.60;;
78288;SDS011;67539;48.752;12.922;2023-06-10T14:39:38;6.47;;;5.93;;
78288;SDS011;67539;48.752;12.922;2023-06-10T14:42:06;6.87;;;6.27;;